Time;durP1;ratioP1;P1;durP2;ratioP2;P2;SDS_P1;SDS_P2;PMS_P1;PMS_P2;Temp;Humidity;BMP_temperature;BMP_pressure;BME280_temperature;BME280_humidity;BME280_pressure;Samples;Min_cycle;Max_cycle;Signal;HPM_P1;HPM_P2
2023/08/06 00:02:15;;;;;;;3.38;3.03;;;;;;;;;;5027229;28;20406;-83
2023/08/06 00:04:41;;;;;;;10.02;3.30;;;;;;;;;;5026688;28;20057;-85
2023/08/06 00:07:06;;;;;;;5.03;2.70;;;;;;;;;;5024814;28;20071;-84
2023/08/06 00:09:31;;;;;;;4.75;3.00;;;;;;;;;;5021860;28;20033;-85
2023/08/06 00:11:57;;;;;;;3.63;3.13;;;;;;;;;;5024786;28;20025;-85
2023/08/06 00:14:22;;;;;;;4.20;3.17;;;;;;;;;;5020163;28;20057;-84
2023/08/06 00:16:47;;;;;;;3.97;2.92;;;;;;;;;;5007283;28;20544;-85
2023/08/06 00:19:24;;;;;;;4.95;3.25;;;;;;;;;;5011575;28;20052;-84
2023/08/06 00:21:50;;;;;;;4.60;3.33;;;;;;;;;;5011782;28;20030;-85
2023/08/06 00:24:15;;;;;;;3.17;2.72;;;;;;;;;;5013196;28;20032;-86
2023/08/06 00:26:40;;;;;;;5.07;3.53;;;;;;;;;;5025917;28;20045;-86
2023/08/06 00:29:06;;;;;;;4.53;3.28;;;;;;;;;;5026635;28;20038;-85
2023/08/06 00:31:31;;;;;;;5.43;3.78;;;;;;;;;;5022619;28;20038;-83
2023/08/06 00:33:56;;;;;;;3.50;3.20;;;;;;;;;;5018868;28;20125;-83
2023/08/06 00:36:21;;;;;;;4.78;3.53;;;;;;;;;;5029387;28;20021;-83
2023/08/06 00:38:47;;;;;;;5.50;3.78;;;;;;;;;;5020984;28;20091;-84
2023/08/06 00:41:12;;;;;;;3.88;3.33;;;;;;;;;;5020801;28;20038;-83
2023/08/06 00:43:37;;;;;;;3.80;3.47;;;;;;;;;;5023317;28;20117;-82
2023/08/06 00:46:03;;;;;;;4.55;3.53;;;;;;;;;;5026994;28;20128;-83
2023/08/06 00:48:28;;;;;;;4.85;3.35;;;;;;;;;;5005479;28;20071;-81
2023/08/06 00:50:53;;;;;;;3.72;3.28;;;;;;;;;;5024218;28;20089;-85
2023/08/06 00:53:19;;;;;;;3.67;3.03;;;;;;;;;;5015835;28;20110;-83
2023/08/06 00:55:45;;;;;;;3.25;2.95;;;;;;;;;;5023996;28;20061;-82
2023/08/06 00:58:10;;;;;;;3.30;3.00;;;;;;;;;;5023261;28;20050;-81
2023/08/06 01:00:36;;;;;;;3.08;2.75;;;;;;;;;;5023004;28;20049;-85
2023/08/06 01:03:01;;;;;;;3.08;2.80;;;;;;;;;;5021239;28;20030;-86
2023/08/06 01:05:26;;;;;;;2.67;2.45;;;;;;;;;;5019421;28;20023;-85
2023/08/06 01:08:25;;;;;;;4.95;2.60;;;;;;;;;;5023756;28;20362;-83
2023/08/06 01:11:35;;;;;;;4.55;3.22;;;;;;;;;;5020547;28;20060;-84
2023/08/06 01:14:10;;;;;;;2.72;2.50;;;;;;;;;;5024515;28;20037;-81
2023/08/06 01:16:36;;;;;;;3.33;2.42;;;;;;;;;;5003456;28;20398;-83
2023/08/06 01:19:02;;;;;;;3.30;2.85;;;;;;;;;;5009710;28;20060;-83
2023/08/06 01:21:27;;;;;;;2.90;2.65;;;;;;;;;;5023968;28;20045;-85
2023/08/06 01:23:52;;;;;;;2.60;2.40;;;;;;;;;;5026573;28;20500;-83
2023/08/06 01:26:35;;;;;;;2.50;2.30;;;;;;;;;;5025250;28;20026;-79
2023/08/06 01:29:12;;;;;;;2.83;2.55;;;;;;;;;;5012304;28;20387;-85
2023/08/06 01:31:38;;;;;;;6.65;3.00;;;;;;;;;;5022283;28;20255;-83
2023/08/06 01:34:16;;;;;;;3.92;2.70;;;;;;;;;;5023882;28;20149;-81
2023/08/06 01:36:42;;;;;;;3.42;2.97;;;;;;;;;;5026338;28;20101;-83
2023/08/06 01:39:07;;;;;;;3.22;2.80;;;;;;;;;;5027356;28;20106;-84
2023/08/06 01:41:32;;;;;;;3.63;2.60;;;;;;;;;;5013455;28;20027;-85
2023/08/06 01:43:58;;;;;;;3.42;2.97;;;;;;;;;;5033535;28;20076;-85
2023/08/06 01:46:23;;;;;;;3.10;2.90;;;;;;;;;;5027020;28;20057;-85
2023/08/06 01:48:48;;;;;;;3.10;2.90;;;;;;;;;;5031559;28;20439;-85
2023/08/06 01:51:14;;;;;;;4.45;2.80;;;;;;;;;;5013429;28;20018;-83
2023/08/06 01:53:39;;;;;;;3.80;2.88;;;;;;;;;;5022626;28;20076;-84
2023/08/06 01:56:04;;;;;;;3.33;2.90;;;;;;;;;;5023237;28;20038;-85
2023/08/06 01:58:29;;;;;;;4.05;2.97;;;;;;;;;;5025614;28;20030;-86
2023/08/06 02:00:55;;;;;;;3.08;2.70;;;;;;;;;;5019286;28;20100;-85
2023/08/06 02:03:20;;;;;;;3.10;2.80;;;;;;;;;;5026904;28;20022;-85
2023/08/06 02:05:46;;;;;;;3.17;2.60;;;;;;;;;;5016610;28;20026;-86
2023/08/06 02:08:11;;;;;;;5.63;2.90;;;;;;;;;;5014223;28;20192;-86
2023/08/06 02:10:36;;;;;;;3.60;2.83;;;;;;;;;;5031266;28;20452;-86
2023/08/06 02:13:01;;;;;;;3.58;2.70;;;;;;;;;;5015543;28;20030;-86
2023/08/06 02:15:27;;;;;;;2.85;2.60;;;;;;;;;;5015923;28;20045;-86
2023/08/06 02:17:52;;;;;;;4.70;2.83;;;;;;;;;;5017312;28;20032;-84
2023/08/06 02:20:17;;;;;;;2.80;2.60;;;;;;;;;;5016033;28;20055;-87
2023/08/06 02:22:43;;;;;;;2.70;2.47;;;;;;;;;;5014870;28;20041;-84
2023/08/06 02:25:08;;;;;;;3.75;2.58;;;;;;;;;;5016448;28;20033;-87
2023/08/06 02:27:34;;;;;;;3.38;2.40;;;;;;;;;;5016740;28;20036;-83
2023/08/06 02:29:59;;;;;;;4.03;2.65;;;;;;;;;;5017226;28;20048;-85
2023/08/06 02:32:24;;;;;;;6.07;2.72;;;;;;;;;;5015889;28;20460;-85
2023/08/06 02:34:50;;;;;;;2.83;2.22;;;;;;;;;;5015551;28;20377;-83
2023/08/06 02:37:15;;;;;;;6.82;2.60;;;;;;;;;;5021161;28;20029;-83
2023/08/06 02:39:40;;;;;;;2.53;2.10;;;;;;;;;;5020576;28;20030;-85
2023/08/06 02:42:07;;;;;;;2.65;2.45;;;;;;;;;;5024069;28;20152;-84
2023/08/06 02:44:33;;;;;;;2.50;2.30;;;;;;;;;;5030909;28;20029;-85
2023/08/06 02:46:59;;;;;;;2.65;2.45;;;;;;;;;;5029792;28;20086;-84
2023/08/06 02:49:24;;;;;;;2.60;2.40;;;;;;;;;;5016477;28;20048;-83
2023/08/06 02:51:49;;;;;;;5.18;2.28;;;;;;;;;;5014221;28;20029;-84
2023/08/06 02:54:14;;;;;;;7.22;3.30;;;;;;;;;;5029584;28;20024;-85
2023/08/06 02:56:43;;;;;;;2.38;2.17;;;;;;;;;;5021269;28;20528;-84
2023/08/06 02:59:09;;;;;;;3.90;2.50;;;;;;;;;;5012933;28;20034;-86
2023/08/06 03:01:36;;;;;;;2.80;2.60;;;;;;;;;;5022641;28;20490;-82
2023/08/06 03:04:01;;;;;;;2.75;2.55;;;;;;;;;;5032229;28;20516;-83
2023/08/06 03:06:26;;;;;;;6.25;2.83;;;;;;;;;;5019727;28;20025;-86
2023/08/06 03:08:51;;;;;;;2.78;2.47;;;;;;;;;;5029727;28;20025;-86
2023/08/06 03:11:17;;;;;;;2.92;2.42;;;;;;;;;;5015953;28;20443;-84
2023/08/06 03:13:42;;;;;;;2.60;2.40;;;;;;;;;;5023785;28;20049;-83
2023/08/06 03:16:07;;;;;;;3.45;2.78;;;;;;;;;;5025216;28;20379;-82
2023/08/06 03:18:33;;;;;;;3.65;2.40;;;;;;;;;;5013788;28;20026;-86
2023/08/06 03:21:00;;;;;;;8.68;3.17;;;;;;;;;;5017922;28;20029;-81
2023/08/06 03:23:26;;;;;;;3.13;2.72;;;;;;;;;;5023228;28;20098;-83
2023/08/06 03:25:51;;;;;;;3.15;2.85;;;;;;;;;;5030980;28;20101;-83
2023/08/06 03:28:16;;;;;;;5.45;2.90;;;;;;;;;;5026657;28;20129;-82
2023/08/06 03:30:41;;;;;;;2.70;2.50;;;;;;;;;;5030734;28;20030;-82
2023/08/06 03:33:07;;;;;;;3.45;2.55;;;;;;;;;;5030271;28;20336;-83
2023/08/06 03:35:32;;;;;;;2.75;2.55;;;;;;;;;;5027906;28;20041;-81
2023/08/06 03:37:57;;;;;;;4.80;3.00;;;;;;;;;;5030947;28;20041;-81
2023/08/06 03:40:23;;;;;;;2.97;2.70;;;;;;;;;;5019956;28;20612;-81
2023/08/06 03:42:48;;;;;;;3.78;2.78;;;;;;;;;;5033857;28;20092;-83
2023/08/06 03:45:13;;;;;;;3.35;2.85;;;;;;;;;;5035632;28;20109;-81
2023/08/06 03:47:39;;;;;;;4.72;2.60;;;;;;;;;;5036627;28;20076;-85
2023/08/06 03:50:04;;;;;;;2.67;2.47;;;;;;;;;;5037424;28;20033;-87
2023/08/06 03:52:29;;;;;;;6.65;2.72;;;;;;;;;;5036589;28;20044;-86
2023/08/06 03:54:55;;;;;;;3.63;2.17;;;;;;;;;;5036744;28;20523;-83
2023/08/06 03:57:20;;;;;;;2.53;2.15;;;;;;;;;;5037774;28;20018;-84
2023/08/06 03:59:45;;;;;;;2.83;2.33;;;;;;;;;;5020904;28;20575;-84
2023/08/06 04:02:10;;;;;;;2.60;2.15;;;;;;;;;;5017477;28;20041;-84
2023/08/06 04:04:36;;;;;;;2.80;2.40;;;;;;;;;;5030129;28;20041;-85
2023/08/06 04:07:01;;;;;;;3.55;2.30;;;;;;;;;;5034768;28;20083;-85
2023/08/06 04:09:28;;;;;;;2.10;1.95;;;;;;;;;;5016716;28;20375;-84
2023/08/06 04:11:53;;;;;;;2.63;2.03;;;;;;;;;;5017237;28;20029;-82
2023/08/06 04:14:19;;;;;;;2.95;2.25;;;;;;;;;;5015257;28;20352;-84
2023/08/06 04:16:44;;;;;;;2.75;2.00;;;;;;;;;;5017096;28;20052;-84
2023/08/06 04:19:10;;;;;;;2.72;2.13;;;;;;;;;;5016250;28;20037;-85
2023/08/06 04:21:35;;;;;;;2.33;2.13;;;;;;;;;;5016167;28;20184;-84
2023/08/06 04:24:00;;;;;;;2.83;1.73;;;;;;;;;;5017416;28;20025;-84
2023/08/06 04:26:25;;;;;;;2.17;2.08;;;;;;;;;;5017126;28;20050;-85
2023/08/06 04:28:51;;;;;;;2.45;2.10;;;;;;;;;;5017313;28;20038;-85
2023/08/06 04:31:16;;;;;;;2.25;2.05;;;;;;;;;;5017150;28;20030;-85
2023/08/06 04:33:42;;;;;;;2.10;1.90;;;;;;;;;;5016400;28;20041;-86
2023/08/06 04:36:07;;;;;;;1.88;1.77;;;;;;;;;;5016055;28;20044;-82
2023/08/06 04:38:32;;;;;;;2.30;2.05;;;;;;;;;;5018368;28;20092;-85
2023/08/06 04:40:58;;;;;;;2.60;1.83;;;;;;;;;;5018858;28;20044;-82
2023/08/06 04:43:24;;;;;;;2.15;1.95;;;;;;;;;;5026116;28;20037;-81
2023/08/06 04:45:51;;;;;;;1.80;1.48;;;;;;;;;;5025786;28;20040;-82
2023/08/06 04:48:16;;;;;;;3.22;1.80;;;;;;;;;;5027263;28;20483;-82
2023/08/06 04:50:46;;;;;;;2.00;1.77;;;;;;;;;;5026120;28;20055;-82
2023/08/06 04:53:11;;;;;;;1.88;1.77;;;;;;;;;;5014896;28;20033;-81
2023/08/06 04:55:36;;;;;;;3.00;2.22;;;;;;;;;;5024287;28;20416;-82
2023/08/06 04:58:02;;;;;;;2.13;1.92;;;;;;;;;;5023525;28;20148;-82
2023/08/06 05:00:27;;;;;;;4.60;2.05;;;;;;;;;;5024493;28;20057;-82
2023/08/06 05:02:53;;;;;;;3.08;1.67;;;;;;;;;;5031931;28;20087;-80
2023/08/06 05:05:18;;;;;;;3.33;1.60;;;;;;;;;;5020413;28;20026;-82
2023/08/06 05:07:48;;;;;;;1.83;1.73;;;;;;;;;;5024245;28;20033;-81
2023/08/06 05:10:13;;;;;;;2.22;1.60;;;;;;;;;;5026517;28;20362;-80
2023/08/06 05:12:38;;;;;;;2.38;1.40;;;;;;;;;;5025649;28;20041;-81
2023/08/06 05:15:04;;;;;;;2.38;1.67;;;;;;;;;;5028882;28;20366;-81
2023/08/06 05:17:29;;;;;;;1.58;1.48;;;;;;;;;;5026154;28;20064;-80
2023/08/06 05:19:55;;;;;;;2.17;1.55;;;;;;;;;;5020693;28;20034;-82
2023/08/06 05:22:20;;;;;;;4.63;1.73;;;;;;;;;;5013957;28;20041;-82
2023/08/06 05:24:45;;;;;;;1.88;1.35;;;;;;;;;;5022109;28;20453;-82
2023/08/06 05:27:10;;;;;;;1.20;1.20;;;;;;;;;;5012484;28;20098;-82
2023/08/06 05:29:36;;;;;;;1.30;1.25;;;;;;;;;;5014484;28;20029;-79
2023/08/06 05:32:01;;;;;;;1.98;1.50;;;;;;;;;;5012758;28;20490;-83
2023/08/06 05:34:26;;;;;;;2.72;1.50;;;;;;;;;;4996399;28;20033;-82
2023/08/06 05:36:52;;;;;;;2.45;1.38;;;;;;;;;;5012798;28;20042;-84
2023/08/06 05:39:18;;;;;;;1.52;1.30;;;;;;;;;;5013441;28;20033;-84
2023/08/06 05:41:43;;;;;;;1.77;1.33;;;;;;;;;;5014060;28;20026;-85
2023/08/06 05:44:08;;;;;;;6.47;1.70;;;;;;;;;;5013310;28;20030;-83
2023/08/06 05:46:33;;;;;;;3.60;1.50;;;;;;;;;;5030545;28;20033;-83
2023/08/06 05:48:59;;;;;;;1.20;1.10;;;;;;;;;;5032835;28;20030;-82
2023/08/06 05:51:26;;;;;;;1.30;1.20;;;;;;;;;;5032909;28;20132;-82
2023/08/06 05:53:51;;;;;;;6.03;1.30;;;;;;;;;;5015774;28;20025;-83
2023/08/06 05:56:17;;;;;;;1.23;1.13;;;;;;;;;;5026086;28;20084;-83
2023/08/06 05:58:42;;;;;;;1.50;1.40;;;;;;;;;;5013316;28;20037;-83
2023/08/06 06:01:07;;;;;;;2.65;1.30;;;;;;;;;;5008157;28;20405;-83
2023/08/06 06:03:32;;;;;;;1.80;1.48;;;;;;;;;;5030709;28;20030;-82
2023/08/06 06:06:00;;;;;;;1.20;1.10;;;;;;;;;;5014299;28;20021;-82
2023/08/06 06:08:26;;;;;;;1.85;1.27;;;;;;;;;;5015241;28;20133;-82
2023/08/06 06:10:51;;;;;;;1.27;1.17;;;;;;;;;;5027637;28;20518;-83
2023/08/06 06:13:16;;;;;;;2.10;1.55;;;;;;;;;;5015280;28;20037;-83
2023/08/06 06:15:41;;;;;;;1.20;1.10;;;;;;;;;;5019139;28;20040;-83
2023/08/06 06:18:07;;;;;;;4.03;1.15;;;;;;;;;;5026279;28;20136;-82
2023/08/06 06:20:33;;;;;;;1.52;1.00;;;;;;;;;;5013343;28;20540;-82
2023/08/06 06:22:58;;;;;;;1.25;1.08;;;;;;;;;;5011256;28;20065;-82
2023/08/06 06:25:23;;;;;;;1.60;1.17;;;;;;;;;;5024124;28;20041;-82
2023/08/06 06:27:48;;;;;;;1.40;1.30;;;;;;;;;;5030156;28;20514;-81
2023/08/06 06:30:23;;;;;;;1.40;1.30;;;;;;;;;;5030556;28;20032;-82
2023/08/06 06:32:49;;;;;;;2.45;1.30;;;;;;;;;;5030582;28;20043;-79
2023/08/06 06:35:14;;;;;;;1.10;1.10;;;;;;;;;;5033534;28;20033;-83
2023/08/06 06:37:39;;;;;;;6.25;1.40;;;;;;;;;;5032412;28;20048;-82
2023/08/06 06:40:05;;;;;;;1.48;1.30;;;;;;;;;;5012568;28;20521;-83
2023/08/06 06:42:30;;;;;;;1.10;1.10;;;;;;;;;;5021483;28;20045;-84
2023/08/06 06:44:56;;;;;;;4.00;1.08;;;;;;;;;;5030988;28;20037;-84
2023/08/06 06:47:21;;;;;;;1.73;1.45;;;;;;;;;;5027035;28;20057;-84
2023/08/06 06:49:46;;;;;;;1.60;1.50;;;;;;;;;;5020857;28;20577;-83
2023/08/06 06:52:12;;;;;;;2.67;1.60;;;;;;;;;;5028768;28;20501;-82
2023/08/06 06:54:37;;;;;;;1.48;1.35;;;;;;;;;;5021841;28;20038;-82
2023/08/06 06:57:02;;;;;;;1.40;1.30;;;;;;;;;;5023264;28;20033;-82
2023/08/06 06:59:28;;;;;;;1.30;1.20;;;;;;;;;;5035348;28;20105;-81
2023/08/06 07:01:53;;;;;;;1.70;1.60;;;;;;;;;;5024915;28;20128;-83
2023/08/06 07:04:18;;;;;;;1.13;1.05;;;;;;;;;;5031716;28;20030;-83
2023/08/06 07:06:44;;;;;;;1.30;1.20;;;;;;;;;;5030182;28;20124;-83
2023/08/06 07:09:09;;;;;;;2.35;1.00;;;;;;;;;;5030017;28;20108;-85
2023/08/06 07:11:34;;;;;;;2.45;1.10;;;;;;;;;;5030604;28;20029;-82
2023/08/06 07:14:00;;;;;;;1.38;1.17;;;;;;;;;;5024238;28;20034;-84
2023/08/06 07:16:26;;;;;;;1.92;0.95;;;;;;;;;;5026631;28;20121;-79
2023/08/06 07:18:52;;;;;;;1.25;0.75;;;;;;;;;;5021545;28;20560;-82
2023/08/06 07:21:18;;;;;;;2.75;1.10;;;;;;;;;;5023038;28;20033;-83
2023/08/06 07:23:43;;;;;;;1.33;0.80;;;;;;;;;;5025863;28;20032;-82
2023/08/06 07:26:09;;;;;;;1.05;0.98;;;;;;;;;;5026586;28;20056;-85
2023/08/06 07:28:34;;;;;;;0.90;0.90;;;;;;;;;;5032807;28;20037;-83
2023/08/06 07:31:00;;;;;;;0.88;0.88;;;;;;;;;;5014440;28;20065;-84
2023/08/06 07:33:25;;;;;;;0.82;0.82;;;;;;;;;;5027739;28;20025;-83
2023/08/06 07:35:50;;;;;;;1.70;0.85;;;;;;;;;;5024362;28;20029;-83
2023/08/06 07:38:16;;;;;;;2.35;0.80;;;;;;;;;;5028070;28;20800;-83
2023/08/06 07:40:42;;;;;;;1.77;0.90;;;;;;;;;;5024296;28;20045;-81
2023/08/06 07:43:07;;;;;;;1.23;1.13;;;;;;;;;;5032268;28;20379;-84
2023/08/06 07:45:36;;;;;;;1.40;0.80;;;;;;;;;;5029607;28;20478;-84
2023/08/06 07:48:02;;;;;;;1.10;0.75;;;;;;;;;;5030673;28;20473;-84
2023/08/06 07:50:27;;;;;;;0.55;0.55;;;;;;;;;;5035228;28;20421;-85
2023/08/06 07:52:52;;;;;;;0.88;0.52;;;;;;;;;;5033915;28;20033;-83
2023/08/06 07:55:18;;;;;;;0.60;0.60;;;;;;;;;;5009599;28;20121;-84
2023/08/06 07:57:43;;;;;;;1.15;0.52;;;;;;;;;;5023024;28;20037;-84
2023/08/06 08:00:09;;;;;;;1.30;0.70;;;;;;;;;;5019383;28;20021;-84
2023/08/06 08:02:34;;;;;;;2.08;0.80;;;;;;;;;;5021379;28;20033;-85
2023/08/06 08:05:00;;;;;;;2.42;0.63;;;;;;;;;;5028496;28;20022;-83
2023/08/06 08:07:28;;;;;;;1.13;0.70;;;;;;;;;;5019999;28;20125;-83
2023/08/06 08:09:53;;;;;;;0.80;0.60;;;;;;;;;;5026218;28;20042;-86
2023/08/06 08:12:18;;;;;;;0.65;0.40;;;;;;;;;;5026409;28;20017;-82
2023/08/06 08:14:45;;;;;;;0.57;0.50;;;;;;;;;;5025951;28;20060;-84
2023/08/06 08:17:11;;;;;;;0.40;0.40;;;;;;;;;;5027264;28;20424;-84
2023/08/06 08:19:36;;;;;;;0.40;0.40;;;;;;;;;;5021684;28;20034;-84
2023/08/06 08:22:03;;;;;;;0.40;0.40;;;;;;;;;;5028112;28;20041;-83
2023/08/06 08:24:30;;;;;;;2.58;0.55;;;;;;;;;;5029412;28;20029;-84
2023/08/06 08:26:55;;;;;;;2.95;0.60;;;;;;;;;;5038216;28;20075;-82
2023/08/06 08:29:21;;;;;;;1.38;0.60;;;;;;;;;;5021850;28;20034;-83
2023/08/06 08:31:48;;;;;;;1.88;0.73;;;;;;;;;;5030310;28;20049;-84
2023/08/06 08:34:14;;;;;;;1.23;0.57;;;;;;;;;;5035387;28;20040;-83
2023/08/06 08:36:40;;;;;;;0.38;0.38;;;;;;;;;;5034741;28;20112;-84
2023/08/06 08:39:05;;;;;;;0.50;0.50;;;;;;;;;;5032761;28;20029;-82
2023/08/06 08:41:31;;;;;;;0.63;0.43;;;;;;;;;;5024281;28;20060;-84
2023/08/06 08:43:58;;;;;;;0.40;0.40;;;;;;;;;;5034163;28;20048;-84
2023/08/06 08:46:25;;;;;;;0.43;0.30;;;;;;;;;;5024422;28;20044;-86
2023/08/06 08:48:51;;;;;;;0.40;0.35;;;;;;;;;;5022869;28;20064;-81
2023/08/06 08:51:17;;;;;;;3.03;0.32;;;;;;;;;;5030969;28;20405;-85
2023/08/06 08:53:44;;;;;;;0.55;0.50;;;;;;;;;;5027349;28;20032;-82
2023/08/06 08:56:12;;;;;;;0.85;0.50;;;;;;;;;;5021893;28;20080;-85
2023/08/06 08:58:37;;;;;;;0.40;0.40;;;;;;;;;;5020191;28;20324;-84
2023/08/06 09:01:04;;;;;;;1.63;0.45;;;;;;;;;;5028226;28;20037;-84
2023/08/06 09:03:30;;;;;;;0.40;0.40;;;;;;;;;;5024846;28;20029;-84
2023/08/06 09:05:57;;;;;;;0.40;0.40;;;;;;;;;;5026654;28;20451;-84
2023/08/06 09:08:29;;;;;;;0.75;0.60;;;;;;;;;;5020371;28;20034;-83
2023/08/06 09:10:56;;;;;;;0.43;0.43;;;;;;;;;;5026276;28;20041;-85
2023/08/06 09:13:23;;;;;;;2.03;1.02;;;;;;;;;;5033695;28;20033;-84
2023/08/06 09:15:50;;;;;;;0.40;0.40;;;;;;;;;;5024935;28;20042;-82
2023/08/06 09:18:24;;;;;;;0.68;0.47;;;;;;;;;;5028770;28;20025;-84
2023/08/06 09:20:50;;;;;;;1.10;0.50;;;;;;;;;;5053353;23;20450;-80
2023/08/06 09:23:15;;;;;;;0.90;0.40;;;;;;;;;;5026180;28;20033;-80
2023/08/06 09:25:41;;;;;;;2.72;0.82;;;;;;;;;;5027997;28;20128;-80
2023/08/06 09:28:06;;;;;;;0.50;0.50;;;;;;;;;;5030145;28;20157;-80
2023/08/06 09:30:34;;;;;;;1.25;1.15;;;;;;;;;;5030281;28;20033;-80
2023/08/06 09:33:00;;;;;;;9.32;4.90;;;;;;;;;;5029746;28;20025;-80
2023/08/06 09:35:28;;;;;;;1.45;0.47;;;;;;;;;;5042995;28;20033;-80
2023/08/06 09:37:54;;;;;;;0.88;0.50;;;;;;;;;;5025167;28;20092;-80
2023/08/06 09:40:30;;;;;;;0.60;0.40;;;;;;;;;;5028601;28;20033;-80
2023/08/06 09:42:56;;;;;;;1.88;0.40;;;;;;;;;;5030291;28;20497;-78
2023/08/06 09:45:22;;;;;;;0.73;0.60;;;;;;;;;;5046557;28;20025;-79
2023/08/06 09:47:48;;;;;;;0.77;0.70;;;;;;;;;;5031534;28;20689;-79
2023/08/06 09:50:20;;;;;;;0.98;0.70;;;;;;;;;;5029340;28;20033;-79
2023/08/06 09:52:50;;;;;;;1.40;0.60;;;;;;;;;;5044856;28;20828;-79
2023/08/06 09:55:16;;;;;;;0.30;0.30;;;;;;;;;;5025337;28;20038;-79
2023/08/06 09:57:43;;;;;;;0.50;0.50;;;;;;;;;;5043555;28;20037;-79
2023/08/06 10:00:11;;;;;;;0.40;0.40;;;;;;;;;;5030163;28;20032;-80
2023/08/06 10:02:39;;;;;;;0.40;0.40;;;;;;;;;;5030368;28;20546;-80
2023/08/06 10:05:05;;;;;;;0.50;0.50;;;;;;;;;;5029642;28;20389;-80
2023/08/06 10:07:30;;;;;;;0.50;0.50;;;;;;;;;;5029905;28;20037;-80
2023/08/06 10:09:56;;;;;;;2.20;0.60;;;;;;;;;;5030371;28;20456;-79
2023/08/06 10:12:24;;;;;;;0.45;0.40;;;;;;;;;;5045755;28;20025;-80
2023/08/06 10:14:53;;;;;;;0.73;0.38;;;;;;;;;;5046317;28;20079;-80
2023/08/06 10:17:19;;;;;;;0.40;0.40;;;;;;;;;;5030114;28;20033;-80
2023/08/06 10:19:44;;;;;;;0.40;0.40;;;;;;;;;;5045166;28;20098;-80
2023/08/06 10:22:13;;;;;;;0.35;0.30;;;;;;;;;;5030369;28;20045;-79
2023/08/06 10:24:55;;;;;;;0.40;0.40;;;;;;;;;;5027922;28;20025;-79
2023/08/06 10:27:33;;;;;;;0.30;0.30;;;;;;;;;;5029014;28;20139;-79
2023/08/06 10:30:22;;;;;;;0.20;0.20;;;;;;;;;;5029601;28;20377;-79
2023/08/06 10:32:49;;;;;;;0.25;0.25;;;;;;;;;;5032454;28;20069;-79
2023/08/06 10:35:37;;;;;;;0.20;0.20;;;;;;;;;;5051742;28;20050;-80
2023/08/06 10:38:09;;;;;;;1.13;0.45;;;;;;;;;;5033494;28;20544;-79
2023/08/06 10:40:36;;;;;;;0.28;0.28;;;;;;;;;;5032835;28;20030;-79
2023/08/06 10:43:03;;;;;;;2.10;0.60;;;;;;;;;;5032347;28;20033;-79
2023/08/06 10:45:30;;;;;;;0.30;0.25;;;;;;;;;;5048262;28;20482;-79
2023/08/06 10:47:57;;;;;;;0.50;0.50;;;;;;;;;;5033226;28;20025;-78
2023/08/06 10:50:23;;;;;;;2.05;0.50;;;;;;;;;;5031971;28;20041;-77
2023/08/06 10:52:48;;;;;;;3.45;0.50;;;;;;;;;;5032868;28;20374;-78
2023/08/06 10:55:23;;;;;;;0.55;0.30;;;;;;;;;;5032852;28;20400;-79
2023/08/06 10:57:49;;;;;;;0.32;0.32;;;;;;;;;;5032052;28;20072;-78
2023/08/06 11:00:14;;;;;;;4.20;0.65;;;;;;;;;;5033313;28;20052;-79
2023/08/06 11:02:39;;;;;;;0.30;0.30;;;;;;;;;;5050201;28;20036;-79
2023/08/06 11:05:09;;;;;;;0.43;0.43;;;;;;;;;;5032602;28;20074;-79
2023/08/06 11:07:38;;;;;;;4.15;0.65;;;;;;;;;;5034850;28;20126;-78
2023/08/06 11:10:08;;;;;;;0.45;0.43;;;;;;;;;;5034338;28;20064;-79
2023/08/06 11:12:34;;;;;;;0.30;0.30;;;;;;;;;;5034928;28;20451;-78
2023/08/06 11:15:00;;;;;;;0.30;0.30;;;;;;;;;;5035672;28;20017;-79
2023/08/06 11:17:28;;;;;;;0.65;0.38;;;;;;;;;;5033563;28;20029;-78
2023/08/06 11:19:54;;;;;;;1.08;0.40;;;;;;;;;;5032426;28;20033;-78
2023/08/06 11:22:22;;;;;;;2.08;0.43;;;;;;;;;;5034264;28;20459;-78
2023/08/06 11:24:48;;;;;;;0.30;0.30;;;;;;;;;;5048501;28;20037;-78
2023/08/06 11:27:15;;;;;;;0.55;0.55;;;;;;;;;;5034036;28;20378;-78
2023/08/06 11:29:44;;;;;;;0.57;0.40;;;;;;;;;;5033517;28;20124;-78
2023/08/06 11:32:10;;;;;;;0.43;0.35;;;;;;;;;;5033894;28;20156;-79
2023/08/06 11:34:36;;;;;;;0.30;0.30;;;;;;;;;;5035107;28;20037;-79
2023/08/06 11:37:05;;;;;;;0.40;0.40;;;;;;;;;;5049842;28;20277;-79
2023/08/06 11:39:38;;;;;;;0.35;0.35;;;;;;;;;;5033791;28;20095;-79
2023/08/06 11:42:05;;;;;;;0.40;0.40;;;;;;;;;;5048461;28;20052;-78
2023/08/06 11:44:35;;;;;;;0.30;0.30;;;;;;;;;;5049961;28;20022;-78
2023/08/06 11:47:02;;;;;;;1.02;0.65;;;;;;;;;;5032603;28;20103;-79
2023/08/06 11:49:46;;;;;;;0.35;0.35;;;;;;;;;;5033432;28;20038;-79
2023/08/06 11:52:20;;;;;;;0.30;0.30;;;;;;;;;;5049582;28;20033;-81
2023/08/06 11:55:10;;;;;;;0.73;0.40;;;;;;;;;;5031900;28;20409;-80
2023/08/06 11:57:36;;;;;;;0.30;0.30;;;;;;;;;;5033430;28;20033;-79
2023/08/06 12:00:07;;;;;;;0.30;0.30;;;;;;;;;;5049988;28;20024;-80
2023/08/06 12:02:37;;;;;;;0.40;0.40;;;;;;;;;;5033410;28;20067;-80
2023/08/06 12:05:11;;;;;;;0.20;0.20;;;;;;;;;;5032754;28;20025;-79
2023/08/06 12:07:38;;;;;;;0.30;0.30;;;;;;;;;;5035005;28;20030;-79
2023/08/06 12:10:04;;;;;;;0.32;0.30;;;;;;;;;;5032693;28;20068;-80
2023/08/06 12:12:30;;;;;;;0.40;0.40;;;;;;;;;;5030122;28;20064;-79
2023/08/06 12:14:56;;;;;;;0.30;0.30;;;;;;;;;;5034857;28;20504;-80
2023/08/06 12:17:22;;;;;;;0.30;0.30;;;;;;;;;;5036423;28;20053;-80
2023/08/06 12:19:47;;;;;;;0.40;0.40;;;;;;;;;;5036213;28;20042;-79
2023/08/06 12:22:13;;;;;;;0.63;0.60;;;;;;;;;;5036820;28;20523;-80
2023/08/06 12:24:40;;;;;;;0.40;0.40;;;;;;;;;;5036357;28;20559;-81
2023/08/06 12:27:06;;;;;;;0.35;0.35;;;;;;;;;;5036919;28;20071;-79
2023/08/06 12:29:31;;;;;;;0.30;0.30;;;;;;;;;;5033750;28;20022;-79
2023/08/06 12:31:56;;;;;;;1.00;0.40;;;;;;;;;;5051487;28;20274;-80
2023/08/06 12:34:22;;;;;;;0.30;0.30;;;;;;;;;;5036295;28;20034;-80
2023/08/06 12:36:47;;;;;;;0.22;0.22;;;;;;;;;;5036646;28;20041;-79
2023/08/06 12:39:13;;;;;;;0.30;0.30;;;;;;;;;;5046093;28;20109;-79
2023/08/06 12:41:38;;;;;;;0.50;0.50;;;;;;;;;;5031476;28;20025;-78
2023/08/06 12:44:03;;;;;;;0.20;0.20;;;;;;;;;;5030843;28;20038;-78
2023/08/06 12:46:29;;;;;;;0.30;0.30;;;;;;;;;;5029470;28;20061;-79
2023/08/06 12:48:54;;;;;;;0.98;0.50;;;;;;;;;;5029813;28;20041;-78
2023/08/06 12:51:19;;;;;;;0.63;0.47;;;;;;;;;;5029255;28;20072;-78
2023/08/06 12:53:45;;;;;;;0.50;0.50;;;;;;;;;;5043216;28;20035;-77
2023/08/06 12:56:10;;;;;;;0.45;0.30;;;;;;;;;;5028228;28;20041;-78
2023/08/06 12:58:35;;;;;;;0.20;0.20;;;;;;;;;;5029241;28;20041;-77
2023/08/06 13:01:00;;;;;;;0.25;0.25;;;;;;;;;;5028011;28;20492;-77
2023/08/06 13:03:26;;;;;;;2.38;0.30;;;;;;;;;;5027375;28;20030;-80
2023/08/06 13:05:51;;;;;;;2.55;0.52;;;;;;;;;;5029425;28;20018;-77
2023/08/06 13:08:17;;;;;;;1.40;0.55;;;;;;;;;;5043121;28;20061;-78
2023/08/06 13:10:42;;;;;;;0.52;0.40;;;;;;;;;;5028881;28;20099;-77
2023/08/06 13:13:10;;;;;;;0.68;0.40;;;;;;;;;;5027933;28;20037;-78
2023/08/06 13:15:35;;;;;;;0.40;0.40;;;;;;;;;;5027424;28;20049;-80
2023/08/06 13:18:00;;;;;;;0.30;0.30;;;;;;;;;;5028449;28;20033;-76
2023/08/06 13:20:26;;;;;;;0.50;0.50;;;;;;;;;;5041619;28;20033;-77
2023/08/06 13:22:53;;;;;;;0.40;0.40;;;;;;;;;;5028726;28;20041;-80
2023/08/06 13:25:19;;;;;;;1.00;0.30;;;;;;;;;;5027191;28;20037;-78
2023/08/06 13:27:45;;;;;;;0.47;0.47;;;;;;;;;;5042003;28;20119;-78
2023/08/06 13:30:11;;;;;;;0.63;0.60;;;;;;;;;;5027439;28;20688;-78
2023/08/06 13:32:36;;;;;;;0.63;0.55;;;;;;;;;;5027262;28;20040;-78
2023/08/06 13:35:04;;;;;;;0.80;0.40;;;;;;;;;;5027214;28;21601;-78
2023/08/06 13:37:29;;;;;;;0.30;0.30;;;;;;;;;;5027914;28;20564;-78
2023/08/06 13:39:54;;;;;;;0.40;0.40;;;;;;;;;;5027985;28;20030;-79
2023/08/06 13:42:19;;;;;;;1.23;0.40;;;;;;;;;;5027914;28;20021;-78
2023/08/06 13:44:45;;;;;;;0.30;0.30;;;;;;;;;;5043435;28;20056;-78
2023/08/06 13:47:10;;;;;;;0.40;0.40;;;;;;;;;;5027800;28;20129;-78
2023/08/06 13:49:35;;;;;;;0.50;0.50;;;;;;;;;;5027439;28;20051;-80
2023/08/06 13:52:01;;;;;;;2.30;0.60;;;;;;;;;;5028292;28;20030;-78
2023/08/06 13:54:26;;;;;;;0.30;0.30;;;;;;;;;;5027573;28;20041;-78
2023/08/06 13:56:53;;;;;;;0.30;0.30;;;;;;;;;;5043384;28;20032;-78
2023/08/06 13:59:19;;;;;;;0.40;0.40;;;;;;;;;;5025995;28;20104;-78
2023/08/06 14:01:45;;;;;;;0.43;0.43;;;;;;;;;;5025364;28;20037;-78
2023/08/06 14:04:10;;;;;;;0.40;0.40;;;;;;;;;;5041494;28;20496;-78
2023/08/06 14:06:36;;;;;;;0.52;0.40;;;;;;;;;;5025852;28;20105;-78
2023/08/06 14:09:01;;;;;;;2.45;0.40;;;;;;;;;;5026263;28;20499;-78
2023/08/06 14:11:27;;;;;;;0.45;0.40;;;;;;;;;;5041206;28;20705;-77
2023/08/06 14:13:52;;;;;;;0.93;0.80;;;;;;;;;;5026588;28;20116;-77
2023/08/06 14:16:17;;;;;;;0.40;0.40;;;;;;;;;;5026729;28;20041;-78
2023/08/06 14:18:43;;;;;;;0.40;0.40;;;;;;;;;;5026203;28;20524;-78
2023/08/06 14:21:08;;;;;;;0.40;0.40;;;;;;;;;;5025506;28;20034;-78
2023/08/06 14:23:34;;;;;;;0.32;0.32;;;;;;;;;;5041175;28;20176;-78
2023/08/06 14:25:59;;;;;;;0.40;0.40;;;;;;;;;;5028582;28;20037;-78
2023/08/06 14:28:24;;;;;;;0.47;0.47;;;;;;;;;;5027774;28;20397;-78
2023/08/06 14:30:50;;;;;;;0.25;0.25;;;;;;;;;;5027651;28;20213;-78
2023/08/06 14:33:15;;;;;;;0.40;0.40;;;;;;;;;;5027094;28;20044;-78
2023/08/06 14:35:40;;;;;;;0.35;0.35;;;;;;;;;;5025134;28;20381;-78
2023/08/06 14:38:05;;;;;;;0.50;0.50;;;;;;;;;;5028593;28;20034;-78
2023/08/06 14:40:34;;;;;;;0.82;0.50;;;;;;;;;;5028348;28;20094;-80